Time;durP1;ratioP1;P1;durP2;ratioP2;P2;SDS_P1;SDS_P2;PMS_P1;PMS_P2;Temp;Humidity;BMP_temperature;BMP_pressure;BME280_temperature;BME280_humidity;BME280_pressure;Samples;Min_cycle;Max_cycle;Signal;HPM_P1;HPM_P2
2022/01/07 00:00:27;;;;;;;21.88;13.70;;;;;;;;;;6235753;28;20053;-65
2022/01/07 00:03:29;;;;;;;18.65;12.07;;;;;;;;;;6236440;28;20081;-66
2022/01/07 00:06:31;;;;;;;18.33;11.85;;;;;;;;;;6243921;28;20159;-65
2022/01/07 00:09:33;;;;;;;19.45;11.65;;;;;;;;;;6235060;28;20571;-65
2022/01/07 00:12:36;;;;;;;19.85;12.38;;;;;;;;;;6235539;28;20124;-65
2022/01/07 00:15:38;;;;;;;19.83;13.05;;;;;;;;;;6231444;28;20049;-64
2022/01/07 00:18:43;;;;;;;31.92;19.95;;;;;;;;;;6237524;28;20128;-66
2022/01/07 00:21:45;;;;;;;73.00;39.28;;;;;;;;;;6232667;28;20133;-67
2022/01/07 00:24:46;;;;;;;25.15;16.25;;;;;;;;;;6232862;28;20127;-66
2022/01/07 00:27:50;;;;;;;34.25;18.73;;;;;;;;;;6231909;28;20100;-66
2022/01/07 00:30:51;;;;;;;33.08;18.85;;;;;;;;;;6232387;28;20128;-66
2022/01/07 00:33:53;;;;;;;37.58;20.80;;;;;;;;;;6234403;28;20102;-66
2022/01/07 00:36:55;;;;;;;22.92;12.95;;;;;;;;;;6235221;28;20084;-66
2022/01/07 00:39:57;;;;;;;18.10;12.23;;;;;;;;;;6234955;28;20130;-66
2022/01/07 00:43:00;;;;;;;19.02;11.23;;;;;;;;;;6236871;28;20045;-65
2022/01/07 00:46:02;;;;;;;18.33;11.48;;;;;;;;;;6245266;28;20057;-66
2022/01/07 00:49:03;;;;;;;18.60;12.15;;;;;;;;;;6249683;28;20556;-66
2022/01/07 00:52:06;;;;;;;17.02;11.27;;;;;;;;;;6247657;28;20524;-66
2022/01/07 00:55:09;;;;;;;19.83;12.75;;;;;;;;;;6246687;28;20644;-66
2022/01/07 00:58:12;;;;;;;22.02;13.50;;;;;;;;;;6235676;28;20449;-65
2022/01/07 01:01:14;;;;;;;20.23;13.50;;;;;;;;;;6234304;28;20155;-65
2022/01/07 01:04:16;;;;;;;20.17;13.82;;;;;;;;;;6230072;28;20130;-65
2022/01/07 01:07:18;;;;;;;20.92;13.27;;;;;;;;;;6227890;28;20054;-65
2022/01/07 01:10:21;;;;;;;20.75;13.50;;;;;;;;;;6235425;28;20061;-65
2022/01/07 01:13:24;;;;;;;22.08;13.32;;;;;;;;;;6233856;28;20099;-65
2022/01/07 01:16:25;;;;;;;19.45;13.10;;;;;;;;;;6230960;28;20181;-66
2022/01/07 01:19:28;;;;;;;28.98;16.48;;;;;;;;;;6235004;28;20060;-66
2022/01/07 01:22:29;;;;;;;44.83;25.92;;;;;;;;;;6232615;28;20522;-67
2022/01/07 01:25:31;;;;;;;29.98;17.40;;;;;;;;;;6232641;28;20119;-66
2022/01/07 01:28:34;;;;;;;23.05;14.73;;;;;;;;;;6231255;28;20049;-66
2022/01/07 01:31:36;;;;;;;21.80;13.45;;;;;;;;;;6236510;28;20123;-65
2022/01/07 01:34:37;;;;;;;23.38;13.80;;;;;;;;;;6236585;28;20038;-65
2022/01/07 01:37:39;;;;;;;20.67;13.40;;;;;;;;;;6235517;28;20613;-65
2022/01/07 01:40:41;;;;;;;21.42;13.07;;;;;;;;;;6238114;28;20045;-65
2022/01/07 01:43:45;;;;;;;19.60;13.32;;;;;;;;;;6234788;28;20069;-66
2022/01/07 01:46:47;;;;;;;20.00;13.75;;;;;;;;;;6233358;28;20128;-65
2022/01/07 01:49:48;;;;;;;21.58;13.07;;;;;;;;;;6243535;28;20567;-66
2022/01/07 01:52:52;;;;;;;18.30;12.30;;;;;;;;;;6246123;28;20408;-66
2022/01/07 01:55:54;;;;;;;20.92;13.02;;;;;;;;;;6233482;28;20140;-65
2022/01/07 01:58:57;;;;;;;19.38;12.45;;;;;;;;;;6230476;28;20172;-66
2022/01/07 02:02:00;;;;;;;18.90;12.13;;;;;;;;;;6238533;28;20106;-66
2022/01/07 02:05:01;;;;;;;18.23;13.05;;;;;;;;;;6237284;28;20128;-66
2022/01/07 02:08:03;;;;;;;19.42;12.95;;;;;;;;;;6257620;28;20068;-66
2022/01/07 02:11:05;;;;;;;20.35;12.50;;;;;;;;;;6234566;28;20132;-66
2022/01/07 02:14:08;;;;;;;90.63;44.58;;;;;;;;;;6237021;28;20087;-66
2022/01/07 02:17:11;;;;;;;102.47;49.25;;;;;;;;;;6239335;28;20132;-66
2022/01/07 02:20:15;;;;;;;66.72;32.47;;;;;;;;;;6242510;28;20067;-67
2022/01/07 02:23:18;;;;;;;51.30;26.45;;;;;;;;;;6241537;28;20136;-67
2022/01/07 02:26:20;;;;;;;60.40;27.45;;;;;;;;;;6239817;28;20119;-66
2022/01/07 02:29:22;;;;;;;26.33;14.38;;;;;;;;;;6241181;28;20131;-65
2022/01/07 02:32:23;;;;;;;27.65;16.23;;;;;;;;;;6244097;28;20409;-66
2022/01/07 02:35:30;;;;;;;28.63;15.57;;;;;;;;;;6248459;28;20612;-65
2022/01/07 02:38:31;;;;;;;24.33;15.30;;;;;;;;;;6238580;28;20507;-65
2022/01/07 02:41:33;;;;;;;19.55;13.07;;;;;;;;;;6233106;28;20124;-66
2022/01/07 02:44:35;;;;;;;22.52;12.52;;;;;;;;;;6232938;28;20037;-66
2022/01/07 02:47:49;;;;;;;16.20;10.95;;;;;;;;;;6232523;28;20512;-66
2022/01/07 02:50:53;;;;;;;17.80;12.57;;;;;;;;;;6231991;28;20053;-66
2022/01/07 02:53:54;;;;;;;20.05;11.98;;;;;;;;;;6229585;28;20132;-66
2022/01/07 02:56:56;;;;;;;19.67;12.50;;;;;;;;;;6231180;28;20137;-66
2022/01/07 02:59:57;;;;;;;19.02;12.43;;;;;;;;;;6239058;28;20434;-65
2022/01/07 03:03:00;;;;;;;18.10;11.68;;;;;;;;;;6238031;28;20143;-66
2022/01/07 03:06:03;;;;;;;18.70;12.02;;;;;;;;;;6235765;28;20128;-67
2022/01/07 03:09:06;;;;;;;17.33;11.45;;;;;;;;;;6236682;28;20041;-66
2022/01/07 03:12:08;;;;;;;18.15;11.13;;;;;;;;;;6237700;28;20144;-66
2022/01/07 03:15:11;;;;;;;16.83;11.60;;;;;;;;;;6227811;28;20490;-66
2022/01/07 03:18:13;;;;;;;20.92;11.20;;;;;;;;;;6237150;28;20052;-66
2022/01/07 03:21:17;;;;;;;18.52;11.15;;;;;;;;;;6242758;28;20557;-66
2022/01/07 03:24:19;;;;;;;17.90;11.18;;;;;;;;;;6240333;28;20524;-66
2022/01/07 03:27:20;;;;;;;18.48;10.85;;;;;;;;;;6230298;28;20111;-65
2022/01/07 03:30:22;;;;;;;14.00;10.05;;;;;;;;;;6232051;28;20045;-66
2022/01/07 03:33:23;;;;;;;17.63;11.07;;;;;;;;;;6235195;28;20127;-66
2022/01/07 03:36:26;;;;;;;16.73;10.38;;;;;;;;;;6232595;28;20107;-66
2022/01/07 03:39:28;;;;;;;14.88;9.93;;;;;;;;;;6229944;28;20134;-66
2022/01/07 03:42:29;;;;;;;14.60;9.73;;;;;;;;;;6229367;28;20215;-66
2022/01/07 03:45:31;;;;;;;14.60;9.63;;;;;;;;;;6230603;28;20144;-66
2022/01/07 03:48:33;;;;;;;14.82;9.35;;;;;;;;;;6232174;28;20129;-66
2022/01/07 03:51:36;;;;;;;14.85;9.38;;;;;;;;;;6224860;28;20191;-66
2022/01/07 03:54:37;;;;;;;15.60;9.13;;;;;;;;;;6233878;28;20478;-66
2022/01/07 03:57:39;;;;;;;13.77;9.38;;;;;;;;;;6260322;28;20080;-65
2022/01/07 04:00:41;;;;;;;15.20;9.38;;;;;;;;;;6232798;28;20065;-66
2022/01/07 04:03:43;;;;;;;14.90;9.57;;;;;;;;;;6230948;28;20136;-66
2022/01/07 04:06:46;;;;;;;14.95;8.63;;;;;;;;;;6229975;28;20481;-66
2022/01/07 04:09:47;;;;;;;14.45;8.88;;;;;;;;;;6236416;28;20077;-66
2022/01/07 04:12:49;;;;;;;12.48;8.90;;;;;;;;;;6225126;28;20128;-65
2022/01/07 04:15:51;;;;;;;13.55;8.43;;;;;;;;;;6230574;28;20057;-66
2022/01/07 04:18:52;;;;;;;11.55;8.07;;;;;;;;;;6228046;28;20071;-66
2022/01/07 04:21:55;;;;;;;15.13;8.30;;;;;;;;;;6229585;28;20141;-66
2022/01/07 04:24:57;;;;;;;15.02;8.68;;;;;;;;;;6228767;28;20140;-66
2022/01/07 04:28:00;;;;;;;14.70;8.32;;;;;;;;;;6229722;28;20581;-66
2022/01/07 04:31:01;;;;;;;15.32;8.88;;;;;;;;;;6228283;28;20119;-65
2022/01/07 04:34:03;;;;;;;13.80;8.68;;;;;;;;;;6243316;28;20049;-66
2022/01/07 04:37:06;;;;;;;13.52;8.98;;;;;;;;;;6227051;28;20145;-65
2022/01/07 04:40:10;;;;;;;13.55;8.82;;;;;;;;;;6225570;28;20046;-65
2022/01/07 04:43:12;;;;;;;14.75;9.52;;;;;;;;;;6237089;28;20049;-65
2022/01/07 04:46:13;;;;;;;12.68;8.15;;;;;;;;;;6226591;28;20049;-68
2022/01/07 04:49:15;;;;;;;13.65;8.90;;;;;;;;;;6236652;28;20076;-66
2022/01/07 04:52:21;;;;;;;14.13;9.15;;;;;;;;;;6236757;28;20054;-66
2022/01/07 04:55:24;;;;;;;11.98;8.88;;;;;;;;;;6239428;28;20057;-66
2022/01/07 04:58:26;;;;;;;13.77;8.40;;;;;;;;;;6237599;28;20129;-66
2022/01/07 05:01:28;;;;;;;14.60;9.50;;;;;;;;;;6229276;28;20077;-66
2022/01/07 05:04:29;;;;;;;14.00;8.07;;;;;;;;;;6229615;28;20053;-66
2022/01/07 05:07:34;;;;;;;14.68;8.50;;;;;;;;;;6230823;28;20129;-66
2022/01/07 05:10:37;;;;;;;12.68;8.60;;;;;;;;;;6233252;28;20405;-66
2022/01/07 05:13:38;;;;;;;12.32;7.50;;;;;;;;;;6228218;28;20049;-66
2022/01/07 05:16:40;;;;;;;11.93;7.50;;;;;;;;;;6229053;28;20482;-66
2022/01/07 05:19:41;;;;;;;10.98;7.43;;;;;;;;;;6235067;28;20143;-65
2022/01/07 05:22:45;;;;;;;11.18;7.28;;;;;;;;;;6230219;28;20517;-65
2022/01/07 05:25:46;;;;;;;11.87;7.27;;;;;;;;;;6231225;28;20136;-66
2022/01/07 05:28:50;;;;;;;15.35;7.90;;;;;;;;;;6226455;28;20567;-66
2022/01/07 05:31:51;;;;;;;12.77;7.77;;;;;;;;;;6230735;28;20052;-66
2022/01/07 05:34:53;;;;;;;13.23;7.88;;;;;;;;;;6231520;28;20041;-65
2022/01/07 05:37:56;;;;;;;11.55;7.72;;;;;;;;;;6230314;28;20092;-65
2022/01/07 05:40:57;;;;;;;7.63;5.30;;;;;;;;;;6229153;28;20131;-65
2022/01/07 05:43:59;;;;;;;8.65;6.28;;;;;;;;;;6234743;28;20132;-65
2022/01/07 05:47:01;;;;;;;11.52;6.53;;;;;;;;;;6225029;28;20061;-66
2022/01/07 05:50:03;;;;;;;10.90;6.05;;;;;;;;;;6234417;28;20081;-66
2022/01/07 05:53:06;;;;;;;12.50;5.95;;;;;;;;;;6227205;28;20365;-66
2022/01/07 05:56:08;;;;;;;9.18;5.78;;;;;;;;;;6236160;28;20096;-65
2022/01/07 05:59:10;;;;;;;13.15;5.70;;;;;;;;;;6233023;28;20177;-66
2022/01/07 06:02:11;;;;;;;12.75;5.40;;;;;;;;;;6247924;28;20191;-65
2022/01/07 06:05:13;;;;;;;10.40;5.35;;;;;;;;;;6246288;28;20045;-67
2022/01/07 06:08:16;;;;;;;8.70;5.32;;;;;;;;;;6227764;28;20406;-65
2022/01/07 06:11:18;;;;;;;8.13;4.50;;;;;;;;;;6227387;28;20452;-66
2022/01/07 06:14:20;;;;;;;9.25;5.07;;;;;;;;;;6236879;28;20060;-65
2022/01/07 06:17:21;;;;;;;8.52;4.63;;;;;;;;;;6231111;28;20056;-65
2022/01/07 06:20:23;;;;;;;8.43;4.93;;;;;;;;;;6231817;28;20116;-65
2022/01/07 06:23:26;;;;;;;10.32;4.20;;;;;;;;;;6235309;28;20176;-65
2022/01/07 06:26:27;;;;;;;7.40;4.65;;;;;;;;;;6227396;28;20172;-66
2022/01/07 06:29:29;;;;;;;6.78;3.95;;;;;;;;;;6230179;28;20116;-65
2022/01/07 06:32:30;;;;;;;8.63;3.88;;;;;;;;;;6232194;28;20172;-65
2022/01/07 06:35:32;;;;;;;7.63;3.65;;;;;;;;;;6224204;28;20144;-66
2022/01/07 06:38:35;;;;;;;6.57;3.95;;;;;;;;;;6236409;28;20049;-65
2022/01/07 06:41:37;;;;;;;6.18;3.28;;;;;;;;;;6227736;28;20517;-65
2022/01/07 06:44:38;;;;;;;7.03;3.97;;;;;;;;;;6238971;28;20508;-66
2022/01/07 06:47:40;;;;;;;8.38;4.28;;;;;;;;;;6238173;28;20053;-65
2022/01/07 06:50:42;;;;;;;5.07;3.35;;;;;;;;;;6237192;28;20045;-66
2022/01/07 06:53:45;;;;;;;6.00;3.92;;;;;;;;;;6235306;28;20046;-65
2022/01/07 06:56:46;;;;;;;7.43;3.78;;;;;;;;;;6235265;28;20114;-65
2022/01/07 06:59:48;;;;;;;6.80;3.67;;;;;;;;;;6231916;28;20082;-66
2022/01/07 07:02:49;;;;;;;6.18;3.50;;;;;;;;;;6227602;28;20080;-65
2022/01/07 07:05:51;;;;;;;8.98;4.05;;;;;;;;;;6228268;28;20128;-65
2022/01/07 07:08:54;;;;;;;4.53;3.33;;;;;;;;;;6221663;28;20081;-65
2022/01/07 07:11:56;;;;;;;7.40;3.38;;;;;;;;;;6235795;28;20132;-65
2022/01/07 07:14:57;;;;;;;6.88;3.70;;;;;;;;;;6228196;28;20129;-65
2022/01/07 07:17:59;;;;;;;5.53;3.22;;;;;;;;;;6237024;28;20152;-65
2022/01/07 07:21:01;;;;;;;5.28;3.30;;;;;;;;;;6234275;28;20060;-65
2022/01/07 07:24:04;;;;;;;5.63;3.00;;;;;;;;;;6233304;28;20111;-66
2022/01/07 07:27:06;;;;;;;6.03;3.70;;;;;;;;;;6231572;28;20482;-65
2022/01/07 07:30:10;;;;;;;6.45;3.20;;;;;;;;;;6249298;28;20182;-66
2022/01/07 07:36:36;;;;;;;8.20;3.60;;;;;;;;;;6223259;28;20552;-65
2022/01/07 07:39:39;;;;;;;5.32;3.60;;;;;;;;;;6234977;28;20133;-65
2022/01/07 07:42:41;;;;;;;7.28;3.60;;;;;;;;;;6236752;28;20128;-65
2022/01/07 07:45:43;;;;;;;4.05;2.92;;;;;;;;;;6231343;28;20128;-65
2022/01/07 07:48:46;;;;;;;7.28;3.40;;;;;;;;;;6230650;28;20060;-65
2022/01/07 07:51:47;;;;;;;5.88;3.58;;;;;;;;;;6231460;28;20124;-65
2022/01/07 07:54:50;;;;;;;6.95;3.20;;;;;;;;;;6230480;28;20042;-65
2022/01/07 07:57:52;;;;;;;5.72;3.70;;;;;;;;;;6231340;28;20121;-65
2022/01/07 08:00:54;;;;;;;7.47;3.03;;;;;;;;;;6231322;28;20123;-65
2022/01/07 08:03:55;;;;;;;6.95;3.50;;;;;;;;;;6226510;28;20133;-65
2022/01/07 08:06:57;;;;;;;6.38;3.92;;;;;;;;;;6230908;28;20154;-65
2022/01/07 08:10:00;;;;;;;6.90;3.58;;;;;;;;;;6230231;28;20046;-65
2022/01/07 08:13:27;;;;;;;6.82;3.58;;;;;;;;;;6224347;28;20101;-65
2022/01/07 08:16:27;;;;;;;6.40;3.28;;;;;;;;;;6230052;28;20046;-65
2022/01/07 08:19:29;;;;;;;6.72;3.40;;;;;;;;;;6233083;28;20386;-65
2022/01/07 08:22:31;;;;;;;8.18;3.08;;;;;;;;;;6230129;28;20115;-65
2022/01/07 08:25:34;;;;;;;6.20;3.33;;;;;;;;;;6234316;28;20147;-66
2022/01/07 08:28:40;;;;;;;4.10;2.97;;;;;;;;;;6233814;28;20123;-65
2022/01/07 08:35:03;;;;;;;5.25;3.38;;;;;;;;;;6235553;28;20498;-65
2022/01/07 08:38:05;;;;;;;;;;;;;;;;;;6234135;28;20053;-66
2022/01/07 08:41:08;;;;;;;5.30;3.40;;;;;;;;;;6234403;28;20018;-65
2022/01/07 08:44:11;;;;;;;5.90;3.03;;;;;;;;;;6231217;28;20195;-65
2022/01/07 08:47:13;;;;;;;5.25;3.05;;;;;;;;;;6234353;28;20476;-65
2022/01/07 08:50:15;;;;;;;5.53;3.17;;;;;;;;;;6232136;28;20127;-65
2022/01/07 08:53:16;;;;;;;5.82;3.30;;;;;;;;;;6236002;28;20526;-65
2022/01/07 08:56:23;;;;;;;4.97;2.92;;;;;;;;;;6235141;28;20125;-65
2022/01/07 08:59:25;;;;;;;6.60;3.00;;;;;;;;;;6235410;28;20053;-65
2022/01/07 09:02:26;;;;;;;7.00;4.28;;;;;;;;;;6231405;28;20173;-65
2022/01/07 09:05:28;;;;;;;8.80;3.35;;;;;;;;;;6231661;28;20123;-65
2022/01/07 09:08:31;;;;;;;7.97;3.38;;;;;;;;;;6230769;28;20472;-65
2022/01/07 09:11:33;;;;;;;5.75;3.53;;;;;;;;;;6228056;28;20065;-65
2022/01/07 09:14:35;;;;;;;7.40;3.67;;;;;;;;;;6229398;28;20046;-65
2022/01/07 09:17:37;;;;;;;7.40;4.07;;;;;;;;;;6234432;28;20510;-65
2022/01/07 09:20:39;;;;;;;7.88;4.00;;;;;;;;;;6233540;28;20246;-65
2022/01/07 09:23:41;;;;;;;6.20;3.90;;;;;;;;;;6233481;28;20322;-65
2022/01/07 09:26:44;;;;;;;7.32;4.05;;;;;;;;;;6230560;28;20081;-65
2022/01/07 09:29:46;;;;;;;7.38;4.55;;;;;;;;;;6234808;28;20128;-65
2022/01/07 09:32:48;;;;;;;8.02;4.50;;;;;;;;;;6233438;28;20054;-65
2022/01/07 09:35:51;;;;;;;7.43;4.18;;;;;;;;;;6234052;28;20456;-65
2022/01/07 09:38:52;;;;;;;8.40;5.03;;;;;;;;;;6235235;28;20045;-65
2022/01/07 09:41:55;;;;;;;7.93;5.28;;;;;;;;;;6229388;28;20111;-65
2022/01/07 09:44:57;;;;;;;7.85;4.88;;;;;;;;;;6233397;28;20049;-64
2022/01/07 09:48:01;;;;;;;6.85;5.57;;;;;;;;;;6233340;28;20443;-64
2022/01/07 09:51:02;;;;;;;7.55;5.88;;;;;;;;;;6231627;28;20053;-65
2022/01/07 09:54:05;;;;;;;8.82;5.47;;;;;;;;;;6231732;28;20077;-64
2022/01/07 09:57:09;;;;;;;9.38;5.38;;;;;;;;;;6232368;28;20085;-65
2022/01/07 10:00:13;;;;;;;8.05;5.95;;;;;;;;;;6235679;28;20579;-65
2022/01/07 10:03:15;;;;;;;7.47;5.05;;;;;;;;;;6244203;28;20152;-65
2022/01/07 10:06:19;;;;;;;9.13;5.55;;;;;;;;;;6239225;28;20180;-65
2022/01/07 10:09:21;;;;;;;7.22;5.30;;;;;;;;;;6238286;28;20101;-65
2022/01/07 10:12:24;;;;;;;6.72;5.85;;;;;;;;;;6230273;28;25637;-65
2022/01/07 10:15:27;;;;;;;7.07;5.50;;;;;;;;;;6230144;28;20534;-65
2022/01/07 10:18:36;;;;;;;9.32;6.00;;;;;;;;;;6228982;28;20532;-64
2022/01/07 10:21:38;;;;;;;7.70;5.45;;;;;;;;;;6231536;28;20478;-64
2022/01/07 10:24:58;;;;;;;6.10;5.00;;;;;;;;;;6226420;28;20147;-65
2022/01/07 10:28:03;;;;;;;8.73;5.35;;;;;;;;;;6232263;28;20515;-68
2022/01/07 10:31:05;;;;;;;6.70;5.20;;;;;;;;;;6230371;28;20073;-65
2022/01/07 10:34:07;;;;;;;7.13;4.85;;;;;;;;;;6236167;28;20045;-65
2022/01/07 10:37:13;;;;;;;7.18;4.97;;;;;;;;;;6246220;28;20124;-65
2022/01/07 10:40:27;;;;;;;6.35;4.70;;;;;;;;;;6227613;28;20414;-65
2022/01/07 10:43:32;;;;;;;6.55;4.68;;;;;;;;;;6231381;28;20219;-65
2022/01/07 10:46:34;;;;;;;6.18;5.20;;;;;;;;;;6232332;28;20041;-65
2022/01/07 10:49:36;;;;;;;10.27;5.95;;;;;;;;;;6236785;28;20046;-65
2022/01/07 10:52:37;;;;;;;8.85;4.93;;;;;;;;;;6227738;28;20045;-65
2022/01/07 10:55:39;;;;;;;6.32;4.90;;;;;;;;;;6234026;28;20133;-65
2022/01/07 10:59:03;;;;;;;8.00;4.95;;;;;;;;;;6233818;28;20140;-65
2022/01/07 11:02:05;;;;;;;8.20;5.03;;;;;;;;;;6236632;28;20141;-65
2022/01/07 11:05:08;;;;;;;4.78;3.55;;;;;;;;;;6236482;28;20069;-64
2022/01/07 11:08:09;;;;;;;5.70;3.67;;;;;;;;;;6227714;28;20100;-65
2022/01/07 11:11:12;;;;;;;5.32;4.05;;;;;;;;;;6231926;28;20503;-64
2022/01/07 11:14:17;;;;;;;4.07;3.38;;;;;;;;;;6226014;28;20042;-65
2022/01/07 11:17:21;;;;;;;5.82;3.92;;;;;;;;;;6235197;28;20184;-65
2022/01/07 11:20:24;;;;;;;6.63;4.70;;;;;;;;;;6227665;28;20046;-66
2022/01/07 11:23:26;;;;;;;38.38;23.90;;;;;;;;;;6236310;28;20061;-65
2022/01/07 11:26:27;;;;;;;7.93;5.75;;;;;;;;;;6236910;28;20046;-65
2022/01/07 11:29:30;;;;;;;26.98;16.17;;;;;;;;;;6233662;28;20211;-65
2022/01/07 11:32:37;;;;;;;7.50;5.60;;;;;;;;;;6229023;28;20128;-66
2022/01/07 11:35:45;;;;;;;9.80;6.03;;;;;;;;;;6232817;28;20101;-65
2022/01/07 11:38:47;;;;;;;16.48;9.57;;;;;;;;;;6230655;28;20053;-65
2022/01/07 11:41:51;;;;;;;9.68;6.35;;;;;;;;;;6234538;28;20131;-65
2022/01/07 11:44:54;;;;;;;6.68;4.93;;;;;;;;;;6229321;28;20045;-64
2022/01/07 11:47:57;;;;;;;5.32;4.00;;;;;;;;;;6232519;28;20484;-64
2022/01/07 11:51:15;;;;;;;5.35;4.40;;;;;;;;;;6234399;28;20049;-64
2022/01/07 11:54:21;;;;;;;7.60;4.45;;;;;;;;;;6232564;28;20120;-64
2022/01/07 11:57:22;;;;;;;5.28;4.57;;;;;;;;;;6235105;28;20100;-64
2022/01/07 12:00:51;;;;;;;5.75;4.55;;;;;;;;;;6229959;28;20485;-64
2022/01/07 12:03:54;;;;;;;5.03;4.35;;;;;;;;;;6229893;28;20513;-64
2022/01/07 12:06:56;;;;;;;6.53;4.90;;;;;;;;;;6225560;28;20056;-65
2022/01/07 12:10:13;;;;;;;5.75;4.10;;;;;;;;;;6227073;28;20046;-64
2022/01/07 12:13:14;;;;;;;5.65;4.32;;;;;;;;;;6233335;28;20049;-64
2022/01/07 12:16:20;;;;;;;8.52;4.50;;;;;;;;;;6232114;28;20077;-64
2022/01/07 12:20:07;;;;;;;6.95;4.38;;;;;;;;;;6228385;28;20050;-65
2022/01/07 12:23:08;;;;;;;4.65;3.83;;;;;;;;;;6228942;28;20050;-65
2022/01/07 12:26:11;;;;;;;6.88;4.25;;;;;;;;;;6231969;28;20100;-65
2022/01/07 12:29:15;;;;;;;6.20;4.40;;;;;;;;;;6244592;28;20049;-65
2022/01/07 12:32:19;;;;;;;7.43;4.38;;;;;;;;;;6223047;28;20387;-65
2022/01/07 12:35:21;;;;;;;6.43;4.38;;;;;;;;;;6230779;28;20168;-65
2022/01/07 12:38:22;;;;;;;9.55;4.93;;;;;;;;;;6233083;28;20132;-65
2022/01/07 12:41:24;;;;;;;6.88;4.75;;;;;;;;;;6230270;28;20120;-65
2022/01/07 12:44:26;;;;;;;5.88;4.75;;;;;;;;;;6230430;28;20150;-65
2022/01/07 12:47:30;;;;;;;9.45;4.63;;;;;;;;;;6231638;28;20140;-65
2022/01/07 12:50:31;;;;;;;;;;;;;;;;;;6233983;28;20132;-65
2022/01/07 12:53:33;;;;;;;8.98;4.72;;;;;;;;;;6228951;28;20385;-65
2022/01/07 12:56:37;;;;;;;7.03;4.45;;;;;;;;;;6229029;28;20132;-65
2022/01/07 12:59:39;;;;;;;6.10;4.15;;;;;;;;;;6231049;28;20131;-64
2022/01/07 13:02:44;;;;;;;5.45;4.22;;;;;;;;;;6226214;28;20103;-65
2022/01/07 13:05:46;;;;;;;6.22;3.80;;;;;;;;;;6231412;28;20232;-65
2022/01/07 13:08:48;;;;;;;5.28;3.58;;;;;;;;;;6235171;28;20048;-64
2022/01/07 13:11:50;;;;;;;6.25;4.60;;;;;;;;;;6230490;28;20498;-65
2022/01/07 13:14:52;;;;;;;7.70;4.70;;;;;;;;;;6231555;28;20128;-65
2022/01/07 13:17:55;;;;;;;6.75;4.50;;;;;;;;;;6230894;28;20416;-65
2022/01/07 13:21:08;;;;;;;8.93;4.47;;;;;;;;;;6230127;28;20127;-65
2022/01/07 13:24:13;;;;;;;9.27;4.75;;;;;;;;;;6231027;28;20046;-65
2022/01/07 13:27:15;;;;;;;7.28;4.78;;;;;;;;;;6237397;28;20558;-64
2022/01/07 13:30:17;;;;;;;7.28;4.80;;;;;;;;;;6235910;28;20124;-64
2022/01/07 13:33:26;;;;;;;7.72;5.30;;;;;;;;;;6227948;28;20042;-65
2022/01/07 13:36:36;;;;;;;9.00;4.95;;;;;;;;;;6236115;28;20160;-64
2022/01/07 13:39:39;;;;;;;8.13;4.97;;;;;;;;;;6247296;28;20557;-65
2022/01/07 13:42:41;;;;;;;6.80;4.93;;;;;;;;;;6245178;28;20038;-64
2022/01/07 13:45:44;;;;;;;8.32;4.97;;;;;;;;;;6246844;28;21070;-64
2022/01/07 13:48:52;;;;;;;7.53;4.80;;;;;;;;;;6244562;28;20167;-64
2022/01/07 13:51:57;;;;;;;7.93;4.85;;;;;;;;;;6242220;28;20124;-64
2022/01/07 13:54:59;;;;;;;6.43;4.55;;;;;;;;;;6246627;28;20405;-64
2022/01/07 13:58:05;;;;;;;7.68;4.53;;;;;;;;;;6249624;28;20054;-64
2022/01/07 14:01:08;;;;;;;8.05;4.13;;;;;;;;;;6247588;28;20187;-64
2022/01/07 14:04:11;;;;;;;6.93;4.78;;;;;;;;;;6260792;28;20170;-64
2022/01/07 14:07:26;;;;;;;7.57;4.57;;;;;;;;;;6252109;28;20544;-64
2022/01/07 14:10:31;;;;;;;7.07;4.88;;;;;;;;;;6245382;28;20088;-64
2022/01/07 14:13:32;;;;;;;8.50;5.70;;;;;;;;;;6234499;28;20512;-64
2022/01/07 14:16:34;;;;;;;8.52;5.60;;;;;;;;;;6235711;28;20178;-64
2022/01/07 14:19:54;;;;;;;11.60;6.80;;;;;;;;;;6245944;28;20509;-64
2022/01/07 14:22:56;;;;;;;10.15;5.88;;;;;;;;;;6239531;28;20065;-64
2022/01/07 14:26:02;;;;;;;11.18;6.50;;;;;;;;;;6233984;28;20225;-64
2022/01/07 14:29:04;;;;;;;8.70;6.75;;;;;;;;;;6247259;28;20124;-64
2022/01/07 14:32:06;;;;;;;8.90;6.70;;;;;;;;;;6243964;28;20064;-65
2022/01/07 14:35:11;;;;;;;9.10;6.57;;;;;;;;;;6242891;28;20164;-65
2022/01/07 14:38:13;;;;;;;10.07;6.70;;;;;;;;;;6238972;28;20077;-64
2022/01/07 14:41:14;;;;;;;11.68;7.32;;;;;;;;;;6242404;28;20184;-64
2022/01/07 14:44:17;;;;;;;9.80;6.82;;;;;;;;;;6244672;28;20429;-64
2022/01/07 14:47:19;;;;;;;15.57;7.28;;;;;;;;;;6245927;28;20100;-64
2022/01/07 14:50:22;;;;;;;11.80;6.80;;;;;;;;;;6243115;28;20048;-65
2022/01/07 14:53:24;;;;;;;8.93;6.53;;;;;;;;;;6242784;28;20167;-65
2022/01/07 14:56:26;;;;;;;9.85;6.38;;;;;;;;;;6242662;28;20102;-64
2022/01/07 14:59:28;;;;;;;10.05;6.15;;;;;;;;;;6242735;28;20049;-64
2022/01/07 15:02:29;;;;;;;6.50;5.05;;;;;;;;;;6242709;28;20119;-64
2022/01/07 15:05:32;;;;;;;8.95;5.57;;;;;;;;;;6242646;28;20524;-64
2022/01/07 15:08:34;;;;;;;8.15;5.25;;;;;;;;;;6232026;28;20184;-65
2022/01/07 15:11:36;;;;;;;8.02;5.25;;;;;;;;;;6240480;28;20228;-63
2022/01/07 15:14:39;;;;;;;8.88;5.78;;;;;;;;;;6236047;28;20511;-64
2022/01/07 15:17:41;;;;;;;7.60;5.15;;;;;;;;;;6234410;28;20050;-64
2022/01/07 15:20:44;;;;;;;6.55;4.60;;;;;;;;;;6238222;28;20048;-64
2022/01/07 15:23:45;;;;;;;9.20;5.18;;;;;;;;;;6235772;28;20130;-63
2022/01/07 15:26:47;;;;;;;9.23;5.32;;;;;;;;;;6241235;28;20132;-65
2022/01/07 15:29:49;;;;;;;10.40;4.70;;;;;;;;;;6237964;28;20092;-65
2022/01/07 15:32:50;;;;;;;9.27;5.63;;;;;;;;;;6237407;28;20627;-65
2022/01/07 15:35:53;;;;;;;7.53;4.32;;;;;;;;;;6238574;28;20127;-64
2022/01/07 15:38:55;;;;;;;7.35;3.92;;;;;;;;;;6239067;28;20057;-64
2022/01/07 15:41:57;;;;;;;6.78;4.25;;;;;;;;;;6236977;28;20188;-64
2022/01/07 15:44:58;;;;;;;8.00;4.32;;;;;;;;;;6237655;28;20119;-64
2022/01/07 15:48:00;;;;;;;9.40;4.03;;;;;;;;;;6237229;28;20110;-64
2022/01/07 15:51:03;;;;;;;6.78;4.43;;;;;;;;;;6235335;28;20072;-65
2022/01/07 15:54:05;;;;;;;9.25;3.95;;;;;;;;;;6235929;28;20087;-66
2022/01/07 15:57:07;;;;;;;6.25;3.85;;;;;;;;;;6235777;28;20050;-65
2022/01/07 16:00:09;;;;;;;8.30;3.90;;;;;;;;;;6233217;28;20472;-65
2022/01/07 16:03:13;;;;;;;4.07;2.88;;;;;;;;;;6240473;28;20793;-65
2022/01/07 16:06:16;;;;;;;5.78;3.28;;;;;;;;;;6238889;28;20057;-64
2022/01/07 16:09:18;;;;;;;6.55;3.70;;;;;;;;;;6237682;28;20136;-65
2022/01/07 16:12:20;;;;;;;6.45;3.53;;;;;;;;;;6235498;28;20064;-64
2022/01/07 16:15:21;;;;;;;6.10;3.63;;;;;;;;;;6230097;28;20042;-65
2022/01/07 16:18:23;;;;;;;6.88;3.72;;;;;;;;;;6235371;28;20171;-64
2022/01/07 16:21:26;;;;;;;5.15;3.33;;;;;;;;;;6233679;28;20589;-64
2022/01/07 16:24:27;;;;;;;5.75;4.03;;;;;;;;;;6231147;28;20140;-65
2022/01/07 16:27:29;;;;;;;7.22;3.80;;;;;;;;;;6236070;28;20068;-64
2022/01/07 16:30:31;;;;;;;6.78;3.75;;;;;;;;;;6233165;28;20134;-64
2022/01/07 16:33:32;;;;;;;5.70;3.10;;;;;;;;;;6238109;28;20549;-65
2022/01/07 16:36:35;;;;;;;6.45;3.30;;;;;;;;;;6234718;28;20176;-64
2022/01/07 16:39:37;;;;;;;5.88;3.47;;;;;;;;;;6241391;28;20513;-65
2022/01/07 16:42:38;;;;;;;6.55;3.40;;;;;;;;;;6232552;28;20125;-64
2022/01/07 16:45:40;;;;;;;6.97;3.75;;;;;;;;;;6240127;28;20084;-64
2022/01/07 16:48:42;;;;;;;5.82;3.33;;;;;;;;;;6229506;28;20187;-65
2022/01/07 16:51:45;;;;;;;5.43;3.53;;;;;;;;;;6230937;28;20057;-65
2022/01/07 16:54:47;;;;;;;5.60;3.25;;;;;;;;;;6242596;28;20111;-65
2022/01/07 16:57:49;;;;;;;5.97;3.80;;;;;;;;;;6241416;28;20041;-65
2022/01/07 17:00:51;;;;;;;6.72;4.35;;;;;;;;;;6242719;28;20132;-65
2022/01/07 17:03:54;;;;;;;7.53;3.15;;;;;;;;;;6239821;28;20136;-65
2022/01/07 17:06:57;;;;;;;5.57;3.65;;;;;;;;;;6236371;28;20053;-65
2022/01/07 17:09:59;;;;;;;7.90;4.20;;;;;;;;;;6242403;28;20557;-65
2022/01/07 17:13:00;;;;;;;7.72;3.85;;;;;;;;;;6232237;28;20200;-65
2022/01/07 17:16:02;;;;;;;9.55;4.22;;;;;;;;;;6237609;28;20420;-65
2022/01/07 17:19:03;;;;;;;6.15;3.75;;;;;;;;;;6238294;28;20459;-65
2022/01/07 17:22:06;;;;;;;6.40;4.40;;;;;;;;;;6245059;28;20081;-65
2022/01/07 17:25:10;;;;;;;7.93;3.90;;;;;;;;;;6234088;28;20520;-65
2022/01/07 17:28:11;;;;;;;7.03;4.10;;;;;;;;;;6242943;28;20045;-65
2022/01/07 17:31:13;;;;;;;9.10;4.32;;;;;;;;;;6237062;28;20124;-64
2022/01/07 17:34:14;;;;;;;9.32;4.85;;;;;;;;;;6237310;28;20136;-65
2022/01/07 17:37:17;;;;;;;10.55;4.93;;;;;;;;;;6239562;28;20690;-65
2022/01/07 17:40:19;;;;;;;9.98;5.78;;;;;;;;;;6242699;28;20072;-65
2022/01/07 17:43:22;;;;;;;9.77;6.40;;;;;;;;;;6235105;28;20431;-65
2022/01/07 17:46:23;;;;;;;10.15;6.78;;;;;;;;;;6234522;28;20046;-65
2022/01/07 17:49:25;;;;;;;10.07;5.13;;;;;;;;;;6244303;28;20119;-65
2022/01/07 17:52:28;;;;;;;9.60;5.38;;;;;;;;;;6240846;28;20132;-65
2022/01/07 17:55:29;;;;;;;7.97;5.15;;;;;;;;;;6236096;28;20111;-65
2022/01/07 17:58:31;;;;;;;8.75;6.15;;;;;;;;;;6232391;28;20582;-65
2022/01/07 18:01:32;;;;;;;12.10;6.22;;;;;;;;;;6232873;28;20383;-65
2022/01/07 18:04:36;;;;;;;9.63;5.20;;;;;;;;;;6232601;28;20104;-65
2022/01/07 18:07:39;;;;;;;10.03;5.40;;;;;;;;;;6238478;28;20502;-65
2022/01/07 18:10:41;;;;;;;9.30;4.90;;;;;;;;;;6231540;28;20120;-65
2022/01/07 18:13:43;;;;;;;10.35;5.90;;;;;;;;;;6232103;28;20132;-65